sensor_id;sensor_type;location;lat;lon;timestamp;pressure;altitude;pressure_sealevel;temperature;humidity
14041;BME280;7095;51.388;6.196;2023-07-02T00:00:29;68055.03;;;-145.32;100.00
14041;BME280;7095;51.388;6.196;2023-07-02T00:03:00;67362.28;;;-145.32;100.00
14041;BME280;7095;51.388;6.196;2023-07-02T00:05:29;66739.53;;;-145.32;100.00
14041;BME280;7095;51.388;6.196;2023-07-02T00:07:58;65885.44;;;-145.32;100.00
14041;BME280;7095;51.388;6.196;2023-07-02T00:10:26;64814.09;;;-145.32;100.00
14041;BME280;7095;51.388;6.196;2023-07-02T00:12:56;64518.91;;;-145.32;100.00
14041;BME280;7095;51.388;6.196;2023-07-02T00:15:25;64371.31;;;-145.32;100.00
14041;BME280;7095;51.388;6.196;2023-07-02T00:17:54;64335.41;;;-145.32;100.00
14041;BME280;7095;51.388;6.196;2023-07-02T00:20:24;64040.25;;;-145.32;100.00
14041;BME280;7095;51.388;6.196;2023-07-02T00:22:53;64130.00;;;-145.32;100.00
14041;BME280;7095;51.388;6.196;2023-07-02T00:25:21;64479.03;;;-145.32;100.00
14041;BME280;7095;51.388;6.196;2023-07-02T00:27:50;64375.31;;;-145.32;100.00
14041;BME280;7095;51.388;6.196;2023-07-02T00:30:20;64167.88;;;-145.32;100.00
14041;BME280;7095;51.388;6.196;2023-07-02T00:32:49;64076.16;;;-145.32;100.00
14041;BME280;7095;51.388;6.196;2023-07-02T00:35:17;64363.34;;;-145.32;100.00
14041;BME280;7095;51.388;6.196;2023-07-02T00:37:46;64546.81;;;-145.32;100.00
14041;BME280;7095;51.388;6.196;2023-07-02T00:40:14;64656.53;;;-145.32;100.00
14041;BME280;7095;51.388;6.196;2023-07-02T00:42:43;64299.50;;;-145.32;100.00
14041;BME280;7095;51.388;6.196;2023-07-02T00:45:11;64399.25;;;-145.32;100.00
14041;BME280;7095;51.388;6.196;2023-07-02T00:47:41;64584.72;;;-145.32;100.00
14041;BME280;7095;51.388;6.196;2023-07-02T00:50:11;65588.13;;;-145.32;100.00
14041;BME280;7095;51.388;6.196;2023-07-02T00:52:39;66055.03;;;-145.32;100.00
14041;BME280;7095;51.388;6.196;2023-07-02T00:55:08;66130.84;;;-145.32;100.00
14041;BME280;7095;51.388;6.196;2023-07-02T00:57:37;66140.84;;;-145.32;100.00
14041;BME280;7095;51.388;6.196;2023-07-02T01:00:08;65540.25;;;-145.32;100.00
14041;BME280;7095;51.388;6.196;2023-07-02T01:02:37;64532.88;;;-145.32;100.00
14041;BME280;7095;51.388;6.196;2023-07-02T01:05:15;63595.56;;;-145.32;100.00
14041;BME280;7095;51.388;6.196;2023-07-02T01:07:44;63533.75;;;-145.32;100.00
14041;BME280;7095;51.388;6.196;2023-07-02T01:10:13;63390.19;;;-145.32;100.00
14041;BME280;7095;51.388;6.196;2023-07-02T01:12:42;63144.97;;;-145.32;100.00
14041;BME280;7095;51.388;6.196;2023-07-02T01:15:11;62923.66;;;-145.32;100.00
14041;BME280;7095;51.388;6.196;2023-07-02T01:17:40;62959.53;;;-145.32;100.00
14041;BME280;7095;51.388;6.196;2023-07-02T01:20:12;62774.16;;;-145.32;100.00
14041;BME280;7095;51.388;6.196;2023-07-02T01:22:41;62664.50;;;-145.32;100.00
14041;BME280;7095;51.388;6.196;2023-07-02T01:25:10;62590.75;;;-145.32;100.00
14041;BME280;7095;51.388;6.196;2023-07-02T01:27:39;62467.16;;;-145.32;100.00
14041;BME280;7095;51.388;6.196;2023-07-02T01:30:08;62014.72;;;-145.32;100.00
14041;BME280;7095;51.388;6.196;2023-07-02T01:32:38;61829.34;;;-145.32;100.00
14041;BME280;7095;51.388;6.196;2023-07-02T01:35:08;61711.78;;;-145.32;100.00
14041;BME280;7095;51.388;6.196;2023-07-02T01:37:38;61564.31;;;-145.32;100.00
14041;BME280;7095;51.388;6.196;2023-07-02T01:40:07;61622.09;;;-145.32;100.00
14041;BME280;7095;51.388;6.196;2023-07-02T01:42:37;61962.88;;;-145.32;100.00
14041;BME280;7095;51.388;6.196;2023-07-02T01:45:07;62182.13;;;-145.32;100.00
14041;BME280;7095;51.388;6.196;2023-07-02T01:47:36;62495.06;;;-145.32;100.00
14041;BME280;7095;51.388;6.196;2023-07-02T01:50:05;62562.84;;;-145.32;100.00
14041;BME280;7095;51.388;6.196;2023-07-02T01:52:34;62295.75;;;-145.32;100.00
14041;BME280;7095;51.388;6.196;2023-07-02T01:55:04;62086.47;;;-145.32;100.00
14041;BME280;7095;51.388;6.196;2023-07-02T01:57:33;62225.97;;;-145.32;100.00
14041;BME280;7095;51.388;6.196;2023-07-02T02:00:02;62337.59;;;-145.32;100.00
14041;BME280;7095;51.388;6.196;2023-07-02T02:02:42;62293.75;;;-145.32;100.00
14041;BME280;7095;51.388;6.196;2023-07-02T02:05:11;62096.44;;;-145.32;100.00
14041;BME280;7095;51.388;6.196;2023-07-02T02:07:40;62249.91;;;-145.32;100.00
14041;BME280;7095;51.388;6.196;2023-07-02T02:10:10;62229.97;;;-145.32;100.00
14041;BME280;7095;51.388;6.196;2023-07-02T02:12:39;62453.22;;;-145.32;100.00
14041;BME280;7095;51.388;6.196;2023-07-02T02:15:08;62517.00;;;-145.32;100.00
14041;BME280;7095;51.388;6.196;2023-07-02T02:17:38;62706.38;;;-145.32;100.00
14041;BME280;7095;51.388;6.196;2023-07-02T02:20:08;62935.63;;;-145.32;100.00
14041;BME280;7095;51.388;6.196;2023-07-02T02:22:37;62891.75;;;-145.32;100.00
14041;BME280;7095;51.388;6.196;2023-07-02T02:25:06;62676.47;;;-145.32;100.00
14041;BME280;7095;51.388;6.196;2023-07-02T02:27:36;62867.84;;;-145.32;100.00
14041;BME280;7095;51.388;6.196;2023-07-02T02:30:07;63079.16;;;-145.32;100.00
14041;BME280;7095;51.388;6.196;2023-07-02T02:32:36;63346.31;;;-145.32;100.00
14041;BME280;7095;51.388;6.196;2023-07-02T02:35:08;63362.28;;;-145.32;100.00
14041;BME280;7095;51.388;6.196;2023-07-02T02:37:39;63529.75;;;-145.32;100.00
14041;BME280;7095;51.388;6.196;2023-07-02T02:40:09;63394.19;;;-145.32;100.00
14041;BME280;7095;51.388;6.196;2023-07-02T02:42:40;63248.63;;;-145.32;100.00
14041;BME280;7095;51.388;6.196;2023-07-02T02:45:09;63446.03;;;-145.32;100.00
14041;BME280;7095;51.388;6.196;2023-07-02T02:47:38;63611.53;;;-145.32;100.00
14041;BME280;7095;51.388;6.196;2023-07-02T02:50:07;63432.06;;;-145.32;100.00
14041;BME280;7095;51.388;6.196;2023-07-02T02:52:37;63515.81;;;-145.32;100.00
14041;BME280;7095;51.388;6.196;2023-07-02T02:55:06;63577.63;;;-145.32;100.00
14041;BME280;7095;51.388;6.196;2023-07-02T02:57:35;63541.72;;;-145.32;100.00
14041;BME280;7095;51.388;6.196;2023-07-02T03:00:06;63621.50;;;-145.32;100.00
14041;BME280;7095;51.388;6.196;2023-07-02T03:02:36;64237.69;;;-145.32;100.00
14041;BME280;7095;51.388;6.196;2023-07-02T03:05:07;64887.91;;;-145.32;100.00
14041;BME280;7095;51.388;6.196;2023-07-02T03:07:35;65564.19;;;-145.32;100.00
14041;BME280;7095;51.388;6.196;2023-07-02T03:10:05;65891.41;;;-145.32;100.00
14041;BME280;7095;51.388;6.196;2023-07-02T03:12:34;66098.94;;;-145.32;100.00
14041;BME280;7095;51.388;6.196;2023-07-02T03:15:05;65723.81;;;-145.32;100.00
14041;BME280;7095;51.388;6.196;2023-07-02T03:17:35;65755.72;;;-145.32;100.00
14041;BME280;7095;51.388;6.196;2023-07-02T03:20:05;65466.44;;;-145.32;100.00
14041;BME280;7095;51.388;6.196;2023-07-02T03:22:35;65835.53;;;-145.32;100.00
14041;BME280;7095;51.388;6.196;2023-07-02T03:25:04;66021.13;;;-145.32;100.00
14041;BME280;7095;51.388;6.196;2023-07-02T03:27:32;65949.28;;;-145.32;100.00
14041;BME280;7095;51.388;6.196;2023-07-02T03:30:01;65474.41;;;-145.32;100.00
14041;BME280;7095;51.388;6.196;2023-07-02T03:32:33;65229.03;;;-145.32;100.00
14041;BME280;7095;51.388;6.196;2023-07-02T03:35:02;65354.72;;;-145.32;100.00
14041;BME280;7095;51.388;6.196;2023-07-02T03:37:31;65037.53;;;-145.32;100.00
14041;BME280;7095;51.388;6.196;2023-07-02T03:39:59;65195.13;;;-145.32;100.00
14041;BME280;7095;51.388;6.196;2023-07-02T03:42:28;65035.53;;;-145.32;100.00
14041;BME280;7095;51.388;6.196;2023-07-02T03:44:56;64818.09;;;-145.32;100.00
14041;BME280;7095;51.388;6.196;2023-07-02T03:47:25;64616.63;;;-145.32;100.00
14041;BME280;7095;51.388;6.196;2023-07-02T03:49:55;65137.25;;;-145.32;100.00
14041;BME280;7095;51.388;6.196;2023-07-02T03:52:23;65296.84;;;-145.32;100.00
14041;BME280;7095;51.388;6.196;2023-07-02T03:54:52;64951.75;;;-145.32;100.00
14041;BME280;7095;51.388;6.196;2023-07-02T03:57:21;64885.91;;;-145.32;100.00
14041;BME280;7095;51.388;6.196;2023-07-02T03:59:49;64838.03;;;-145.32;100.00
14041;BME280;7095;51.388;6.196;2023-07-02T04:02:18;64714.38;;;-145.32;100.00
14041;BME280;7095;51.388;6.196;2023-07-02T04:04:46;63980.44;;;-145.32;100.00
14041;BME280;7095;51.388;6.196;2023-07-02T04:07:16;64235.69;;;-145.32;100.00
14041;BME280;7095;51.388;6.196;2023-07-02T04:09:45;63908.63;;;-145.32;100.00
14041;BME280;7095;51.388;6.196;2023-07-02T04:12:13;63539.75;;;-145.32;100.00
14041;BME280;7095;51.388;6.196;2023-07-02T04:14:42;63214.75;;;-145.32;100.00
14041;BME280;7095;51.388;6.196;2023-07-02T04:17:10;62780.13;;;-145.32;100.00
14041;BME280;7095;51.388;6.196;2023-07-02T04:19:39;62550.88;;;-145.32;100.00
14041;BME280;7095;51.388;6.196;2023-07-02T04:22:08;62074.50;;;-145.32;100.00
14041;BME280;7095;51.388;6.196;2023-07-02T04:24:37;61954.91;;;-145.32;100.00
14041;BME280;7095;51.388;6.196;2023-07-02T04:27:07;61646.00;;;-145.32;100.00
14041;BME280;7095;51.388;6.196;2023-07-02T04:29:55;61791.50;;;-145.32;100.00
14041;BME280;7095;51.388;6.196;2023-07-02T04:32:24;61488.59;;;-145.32;100.00
14041;BME280;7095;51.388;6.196;2023-07-02T04:34:53;60504.31;;;-145.32;100.00
14041;BME280;7095;51.388;6.196;2023-07-02T04:37:21;60317.06;;;-145.32;100.00
14041;BME280;7095;51.388;6.196;2023-07-02T04:39:51;60042.16;;;-145.32;100.00
14041;BME280;7095;51.388;6.196;2023-07-02T04:42:20;59918.66;;;-145.32;100.00
14041;BME280;7095;51.388;6.196;2023-07-02T04:44:48;59372.94;;;-145.32;100.00
14041;BME280;7095;51.388;6.196;2023-07-02T04:47:17;59064.28;;;-145.32;100.00
14041;BME280;7095;51.388;6.196;2023-07-02T04:49:46;58845.25;;;-145.32;100.00
14041;BME280;7095;51.388;6.196;2023-07-02T04:52:14;58867.13;;;-145.32;100.00
14041;BME280;7095;51.388;6.196;2023-07-02T04:54:43;58508.75;;;-145.32;100.00
14041;BME280;7095;51.388;6.196;2023-07-02T04:57:13;58301.69;;;-145.32;100.00
14041;BME280;7095;51.388;6.196;2023-07-02T04:59:42;58365.38;;;-145.32;100.00
14041;BME280;7095;51.388;6.196;2023-07-02T05:02:11;58146.41;;;-145.32;100.00
14041;BME280;7095;51.388;6.196;2023-07-02T05:04:39;57722.38;;;-145.32;100.00
14041;BME280;7095;51.388;6.196;2023-07-02T05:07:08;57895.56;;;-145.32;100.00
14041;BME280;7095;51.388;6.196;2023-07-02T05:09:37;57929.41;;;-145.32;100.00
14041;BME280;7095;51.388;6.196;2023-07-02T05:12:06;57537.28;;;-145.32;100.00
14041;BME280;7095;51.388;6.196;2023-07-02T05:14:36;57236.72;;;-145.32;100.00
14041;BME280;7095;51.388;6.196;2023-07-02T05:17:04;57382.03;;;-145.32;100.00
14041;BME280;7095;51.388;6.196;2023-07-02T05:19:35;57071.53;;;-145.32;100.00
14041;BME280;7095;51.388;6.196;2023-07-02T05:22:04;56866.56;;;-145.32;100.00
14041;BME280;7095;51.388;6.196;2023-07-02T05:24:32;56816.81;;;-145.32;100.00
14041;BME280;7095;51.388;6.196;2023-07-02T05:27:01;56371.09;;;-145.32;100.00
14041;BME280;7095;51.388;6.196;2023-07-02T05:29:29;56335.25;;;-145.32;100.00
14041;BME280;7095;51.388;6.196;2023-07-02T05:31:59;56351.19;;;-145.32;100.00
14041;BME280;7095;51.388;6.196;2023-07-02T05:34:29;56209.91;;;-145.32;100.00
14041;BME280;7095;51.388;6.196;2023-07-02T05:36:57;56203.94;;;-145.32;100.00
14041;BME280;7095;51.388;6.196;2023-07-02T05:39:26;56170.13;;;-145.32;100.00
14041;BME280;7095;51.388;6.196;2023-07-02T05:41:55;56176.09;;;-145.32;100.00
14041;BME280;7095;51.388;6.196;2023-07-02T05:44:24;56283.53;;;-145.32;100.00
14041;BME280;7095;51.388;6.196;2023-07-02T05:46:52;56166.16;;;-145.32;100.00
14041;BME280;7095;51.388;6.196;2023-07-02T05:49:23;55835.88;;;-145.32;100.00
14041;BME280;7095;51.388;6.196;2023-07-02T05:51:51;55447.97;;;-145.32;100.00
14041;BME280;7095;51.388;6.196;2023-07-02T05:54:20;55125.72;;;-145.32;100.00
14041;BME280;7095;51.388;6.196;2023-07-02T05:56:49;54958.66;;;-145.32;100.00
14041;BME280;7095;51.388;6.196;2023-07-02T05:59:17;54912.91;;;-145.32;100.00
14041;BME280;7095;51.388;6.196;2023-07-02T06:01:46;54706.06;;;-145.32;100.00
14041;BME280;7095;51.388;6.196;2023-07-02T06:04:14;54533.06;;;-145.32;100.00
14041;BME280;7095;51.388;6.196;2023-07-02T06:06:45;54240.72;;;-145.32;100.00
14041;BME280;7095;51.388;6.196;2023-07-02T06:09:13;54244.72;;;-145.32;100.00
14041;BME280;7095;51.388;6.196;2023-07-02T06:11:43;54169.16;;;-145.32;100.00
14041;BME280;7095;51.388;6.196;2023-07-02T06:14:11;54202.94;;;-145.32;100.00
14041;BME280;7095;51.388;6.196;2023-07-02T06:16:40;54067.75;;;-145.32;100.00
14041;BME280;7095;51.388;6.196;2023-07-02T06:19:09;54012.06;;;-145.32;100.00
14041;BME280;7095;51.388;6.196;2023-07-02T06:21:38;53984.22;;;-145.32;100.00
14041;BME280;7095;51.388;6.196;2023-07-02T06:24:08;54025.97;;;-145.32;100.00
14041;BME280;7095;51.388;6.196;2023-07-02T06:26:36;54000.13;;;-145.32;100.00
14041;BME280;7095;51.388;6.196;2023-07-02T06:29:05;53978.25;;;-145.32;100.00
14041;BME280;7095;51.388;6.196;2023-07-02T06:31:33;53860.94;;;-145.32;100.00
14041;BME280;7095;51.388;6.196;2023-07-02T06:34:02;53904.69;;;-145.32;100.00
14041;BME280;7095;51.388;6.196;2023-07-02T06:36:31;53864.94;;;-145.32;100.00
14041;BME280;7095;51.388;6.196;2023-07-02T06:39:00;53839.06;;;-145.32;100.00
14041;BME280;7095;51.388;6.196;2023-07-02T06:41:30;53785.41;;;-145.32;100.00
14041;BME280;7095;51.388;6.196;2023-07-02T06:43:58;53765.50;;;-145.32;100.00
14041;BME280;7095;51.388;6.196;2023-07-02T06:46:27;53805.28;;;-145.32;100.00
14041;BME280;7095;51.388;6.196;2023-07-02T06:48:56;53775.47;;;-145.32;100.00
14041;BME280;7095;51.388;6.196;2023-07-02T06:51:24;53670.09;;;-145.32;100.00
14041;BME280;7095;51.388;6.196;2023-07-02T06:53:54;53697.91;;;-145.32;100.00
14041;BME280;7095;51.388;6.196;2023-07-02T06:56:25;53652.19;;;-145.32;100.00
14041;BME280;7095;51.388;6.196;2023-07-02T06:58:55;53666.09;;;-145.32;100.00
14041;BME280;7095;51.388;6.196;2023-07-02T07:01:24;53693.94;;;-145.32;100.00
14041;BME280;7095;51.388;6.196;2023-07-02T07:03:53;53638.28;;;-145.32;100.00
14041;BME280;7095;51.388;6.196;2023-07-02T07:06:21;53596.53;;;-145.32;100.00
14041;BME280;7095;51.388;6.196;2023-07-02T07:08:50;53602.47;;;-145.32;100.00
14041;BME280;7095;51.388;6.196;2023-07-02T07:11:19;53550.78;;;-145.32;100.00
14041;BME280;7095;51.388;6.196;2023-07-02T07:13:48;53546.81;;;-145.32;98.42
14041;BME280;7095;51.388;6.196;2023-07-02T07:16:18;53550.78;;;-145.32;98.59
14041;BME280;7095;51.388;6.196;2023-07-02T07:18:47;53592.53;;;-145.32;99.75
14041;BME280;7095;51.388;6.196;2023-07-02T07:21:15;53582.59;;;-145.32;100.00
14041;BME280;7095;51.388;6.196;2023-07-02T07:23:44;53604.47;;;-145.32;100.00
14041;BME280;7095;51.388;6.196;2023-07-02T07:26:12;53546.81;;;-145.32;97.32
14041;BME280;7095;51.388;6.196;2023-07-02T07:28:41;53542.84;;;-145.32;88.69
14041;BME280;7095;51.388;6.196;2023-07-02T07:31:10;53513.03;;;-145.32;88.38
14041;BME280;7095;51.388;6.196;2023-07-02T07:33:40;53509.03;;;-145.32;84.30
14041;BME280;7095;51.388;6.196;2023-07-02T07:36:09;53497.13;;;-145.32;84.95
14041;BME280;7095;51.388;6.196;2023-07-02T07:38:37;53501.09;;;-145.32;85.89
14041;BME280;7095;51.388;6.196;2023-07-02T07:41:06;53503.06;;;-145.32;78.65
14041;BME280;7095;51.388;6.196;2023-07-02T07:43:34;53475.25;;;-145.32;81.06
14041;BME280;7095;51.388;6.196;2023-07-02T07:46:03;53479.22;;;-145.32;76.69
14041;BME280;7095;51.388;6.196;2023-07-02T07:48:32;53469.28;;;-145.32;77.90
14041;BME280;7095;51.388;6.196;2023-07-02T07:51:02;53481.22;;;-145.32;80.17
14041;BME280;7095;51.388;6.196;2023-07-02T07:53:31;53507.06;;;-145.32;79.80
14041;BME280;7095;51.388;6.196;2023-07-02T07:56:00;53463.31;;;-145.32;71.51
14041;BME280;7095;51.388;6.196;2023-07-02T07:58:28;53459.34;;;-145.32;70.12
14041;BME280;7095;51.388;6.196;2023-07-02T08:00:59;53443.44;;;-145.32;71.09
14041;BME280;7095;51.388;6.196;2023-07-02T08:03:27;53441.44;;;-145.32;71.21
14041;BME280;7095;51.388;6.196;2023-07-02T08:05:56;53431.50;;;-145.32;71.28
14041;BME280;7095;51.388;6.196;2023-07-02T08:08:26;53437.47;;;-145.32;69.74
14041;BME280;7095;51.388;6.196;2023-07-02T08:10:55;53443.44;;;-145.32;68.95
14041;BME280;7095;51.388;6.196;2023-07-02T08:13:23;53411.63;;;-145.32;68.86
14041;BME280;7095;51.388;6.196;2023-07-02T08:15:52;53415.59;;;-145.32;73.35
14041;BME280;7095;51.388;6.196;2023-07-02T08:18:21;53431.50;;;-145.32;76.65
14041;BME280;7095;51.388;6.196;2023-07-02T08:20:50;53461.31;;;-145.32;76.42
14041;BME280;7095;51.388;6.196;2023-07-02T08:23:18;53431.50;;;-145.32;76.86
14041;BME280;7095;51.388;6.196;2023-07-02T08:25:49;53385.78;;;-145.32;68.21
14041;BME280;7095;51.388;6.196;2023-07-02T08:28:18;53403.69;;;-145.32;67.79
14041;BME280;7095;51.388;6.196;2023-07-02T08:30:47;53449.41;;;-145.32;72.37
14041;BME280;7095;51.388;6.196;2023-07-02T08:33:16;53423.56;;;-145.32;71.55
14041;BME280;7095;51.388;6.196;2023-07-02T08:35:44;53425.53;;;-145.32;72.62
14041;BME280;7095;51.388;6.196;2023-07-02T08:38:13;53463.31;;;-145.32;74.55
14041;BME280;7095;51.388;6.196;2023-07-02T08:40:42;53421.56;;;-145.32;71.01
14041;BME280;7095;51.388;6.196;2023-07-02T08:43:12;53419.59;;;-145.32;70.86
14041;BME280;7095;51.388;6.196;2023-07-02T08:45:42;53413.63;;;-145.32;70.31
14041;BME280;7095;51.388;6.196;2023-07-02T08:48:14;53403.69;;;-145.32;70.34
14041;BME280;7095;51.388;6.196;2023-07-02T08:50:42;53407.66;;;-145.32;74.13
14041;BME280;7095;51.388;6.196;2023-07-02T08:53:11;53391.75;;;-145.32;69.78
14041;BME280;7095;51.388;6.196;2023-07-02T08:55:39;53415.59;;;-145.32;67.35
14041;BME280;7095;51.388;6.196;2023-07-02T08:58:08;53405.66;;;-145.32;63.20
14041;BME280;7095;51.388;6.196;2023-07-02T09:00:38;53399.69;;;-145.32;61.69
14041;BME280;7095;51.388;6.196;2023-07-02T09:03:13;53385.78;;;-145.32;59.96
14041;BME280;7095;51.388;6.196;2023-07-02T09:05:50;53355.97;;;-145.32;55.74
14041;BME280;7095;51.388;6.196;2023-07-02T09:08:23;53359.94;;;-145.32;55.97
14041;BME280;7095;51.388;6.196;2023-07-02T09:10:52;53352.00;;;-145.32;54.98
14041;BME280;7095;51.388;6.196;2023-07-02T09:13:21;53355.97;;;-145.32;55.05
14041;BME280;7095;51.388;6.196;2023-07-02T09:15:51;53379.81;;;-145.32;53.29
14041;BME280;7095;51.388;6.196;2023-07-02T09:18:21;53348.00;;;-145.32;55.20
14041;BME280;7095;51.388;6.196;2023-07-02T09:20:52;53359.94;;;-145.32;54.98
14041;BME280;7095;51.388;6.196;2023-07-02T09:23:22;53381.81;;;-145.32;55.22
14041;BME280;7095;51.388;6.196;2023-07-02T09:25:51;53373.84;;;-145.32;55.38
14041;BME280;7095;51.388;6.196;2023-07-02T09:28:21;53373.84;;;-145.32;55.62
14041;BME280;7095;51.388;6.196;2023-07-02T09:30:55;53363.91;;;-145.32;58.05
14041;BME280;7095;51.388;6.196;2023-07-02T09:33:25;53350.00;;;-145.32;58.84
14041;BME280;7095;51.388;6.196;2023-07-02T09:35:54;53336.09;;;-145.32;57.77
14041;BME280;7095;51.388;6.196;2023-07-02T09:38:23;53367.91;;;-145.32;56.13
14041;BME280;7095;51.388;6.196;2023-07-02T09:40:52;53375.84;;;-145.32;54.32
14041;BME280;7095;51.388;6.196;2023-07-02T09:43:21;53371.88;;;-145.32;56.45
14041;BME280;7095;51.388;6.196;2023-07-02T09:45:52;53350.00;;;-145.32;56.06
14041;BME280;7095;51.388;6.196;2023-07-02T09:48:24;53371.88;;;-145.32;60.68
14041;BME280;7095;51.388;6.196;2023-07-02T09:50:58;53342.06;;;-145.32;58.61
14041;BME280;7095;51.388;6.196;2023-07-02T09:53:28;53332.09;;;-145.32;55.73
14041;BME280;7095;51.388;6.196;2023-07-02T09:55:57;53367.91;;;-145.32;54.53
14041;BME280;7095;51.388;6.196;2023-07-02T09:58:26;53338.06;;;-145.32;54.39
14041;BME280;7095;51.388;6.196;2023-07-02T10:00:54;53298.31;;;-145.32;54.04
14041;BME280;7095;51.388;6.196;2023-07-02T10:03:31;53328.13;;;-145.32;53.08
14041;BME280;7095;51.388;6.196;2023-07-02T10:06:05;53316.22;;;-145.32;54.70
14041;BME280;7095;51.388;6.196;2023-07-02T10:08:34;53312.22;;;-145.32;47.95
14041;BME280;7095;51.388;6.196;2023-07-02T10:11:12;53292.34;;;-145.32;41.87
14041;BME280;7095;51.388;6.196;2023-07-02T10:13:41;53304.28;;;-145.32;42.14
14041;BME280;7095;51.388;6.196;2023-07-02T10:16:09;53300.31;;;-145.32;40.87
14041;BME280;7095;51.388;6.196;2023-07-02T10:18:40;53324.16;;;-145.32;40.78
14041;BME280;7095;51.388;6.196;2023-07-02T10:21:16;53304.28;;;-145.32;41.48
14041;BME280;7095;51.388;6.196;2023-07-02T10:23:45;53320.19;;;-145.32;42.96
14041;BME280;7095;51.388;6.196;2023-07-02T10:26:15;53310.25;;;-145.32;42.91
14041;BME280;7095;51.388;6.196;2023-07-02T10:28:56;53274.47;;;-145.32;42.32
14041;BME280;7095;51.388;6.196;2023-07-02T10:31:25;53300.31;;;-145.32;43.12
14041;BME280;7095;51.388;6.196;2023-07-02T10:33:55;53272.47;;;-145.32;43.36
14041;BME280;7095;51.388;6.196;2023-07-02T10:36:25;53264.53;;;-145.32;41.90
14041;BME280;7095;51.388;6.196;2023-07-02T10:39:01;53298.31;;;-145.32;40.89
14041;BME280;7095;51.388;6.196;2023-07-02T10:41:31;53304.28;;;-145.32;42.56
14041;BME280;7095;51.388;6.196;2023-07-02T10:44:08;53276.44;;;-145.32;41.10
14041;BME280;7095;51.388;6.196;2023-07-02T10:46:43;53292.34;;;-145.32;42.47
14041;BME280;7095;51.388;6.196;2023-07-02T10:49:14;53258.56;;;-145.32;42.79
14041;BME280;7095;51.388;6.196;2023-07-02T10:51:43;53288.38;;;-145.32;43.03
14041;BME280;7095;51.388;6.196;2023-07-02T10:54:11;53280.41;;;-145.32;42.73
14041;BME280;7095;51.388;6.196;2023-07-02T10:56:41;53276.44;;;-145.32;43.23
14041;BME280;7095;51.388;6.196;2023-07-02T10:59:10;53284.41;;;-145.32;43.96
14041;BME280;7095;51.388;6.196;2023-07-02T11:01:39;53274.47;;;-145.32;43.99
14041;BME280;7095;51.388;6.196;2023-07-02T11:04:08;53254.59;;;-145.32;44.06
14041;BME280;7095;51.388;6.196;2023-07-02T11:06:39;53246.63;;;-145.32;43.71
14041;BME280;7095;51.388;6.196;2023-07-02T11:09:15;53242.66;;;-145.32;43.18
14041;BME280;7095;51.388;6.196;2023-07-02T11:11:52;53252.59;;;-145.32;43.96
14041;BME280;7095;51.388;6.196;2023-07-02T11:14:31;53256.56;;;-145.32;42.94
14041;BME280;7095;51.388;6.196;2023-07-02T11:17:03;53258.56;;;-145.32;43.08
14041;BME280;7095;51.388;6.196;2023-07-02T11:19:33;53228.75;;;-145.32;43.60
14041;BME280;7095;51.388;6.196;2023-07-02T11:22:04;53232.72;;;-145.32;42.67
14041;BME280;7095;51.388;6.196;2023-07-02T11:24:33;53240.66;;;-145.32;42.30
14041;BME280;7095;51.388;6.196;2023-07-02T11:27:04;53212.84;;;-145.32;41.67
14041;BME280;7095;51.388;6.196;2023-07-02T11:29:34;53258.56;;;-145.32;42.40
14041;BME280;7095;51.388;6.196;2023-07-02T11:32:07;53258.56;;;-145.32;41.65
14041;BME280;7095;51.388;6.196;2023-07-02T11:34:37;53206.88;;;-145.32;42.94
14041;BME280;7095;51.388;6.196;2023-07-02T11:42:26;53224.75;;;-145.32;41.67
14041;BME280;7095;51.388;6.196;2023-07-02T11:44:58;53260.53;;;-145.32;43.13
14041;BME280;7095;51.388;6.196;2023-07-02T11:47:27;53240.66;;;-145.32;43.38
14041;BME280;7095;51.388;6.196;2023-07-02T11:50:02;53210.84;;;-145.32;42.80
14041;BME280;7095;51.388;6.196;2023-07-02T11:52:53;53232.72;;;-145.32;42.61
14041;BME280;7095;51.388;6.196;2023-07-02T11:55:22;53230.72;;;-145.32;42.74
14041;BME280;7095;51.388;6.196;2023-07-02T11:57:52;53242.66;;;-145.32;42.05
14041;BME280;7095;51.388;6.196;2023-07-02T12:00:21;53200.91;;;-145.32;41.33
14041;BME280;7095;51.388;6.196;2023-07-02T12:02:50;53234.69;;;-145.32;41.29
14041;BME280;7095;51.388;6.196;2023-07-02T12:05:19;53208.84;;;-145.32;41.85
14041;BME280;7095;51.388;6.196;2023-07-02T12:07:47;53200.91;;;-145.32;42.43
14041;BME280;7095;51.388;6.196;2023-07-02T12:10:16;53204.88;;;-145.32;41.50
14041;BME280;7095;51.388;6.196;2023-07-02T12:12:44;53165.13;;;-145.32;41.34
14041;BME280;7095;51.388;6.196;2023-07-02T12:15:14;53192.94;;;-145.32;41.69
14041;BME280;7095;51.388;6.196;2023-07-02T12:17:43;53248.63;;;-145.32;41.41
14041;BME280;7095;51.388;6.196;2023-07-02T12:20:11;53244.63;;;-145.32;43.24
14041;BME280;7095;51.388;6.196;2023-07-02T12:22:40;53256.56;;;-145.32;43.80
14041;BME280;7095;51.388;6.196;2023-07-02T12:25:08;53183.00;;;-145.32;44.56
14041;BME280;7095;51.388;6.196;2023-07-02T12:27:37;53145.25;;;-145.32;44.39
14041;BME280;7095;51.388;6.196;2023-07-02T12:30:06;53139.28;;;-145.32;43.58
14041;BME280;7095;51.388;6.196;2023-07-02T12:32:38;53226.75;;;-145.32;43.71
14041;BME280;7095;51.388;6.196;2023-07-02T12:35:07;53244.63;;;-145.32;43.89
14041;BME280;7095;51.388;6.196;2023-07-02T12:37:42;53244.63;;;-145.32;43.67
14041;BME280;7095;51.388;6.196;2023-07-02T12:40:11;53242.66;;;-145.32;44.87
14041;BME280;7095;51.388;6.196;2023-07-02T12:42:41;53149.22;;;-145.32;44.69
14041;BME280;7095;51.388;6.196;2023-07-02T12:45:11;53230.72;;;-145.32;45.54
14041;BME280;7095;51.388;6.196;2023-07-02T12:47:41;53282.41;;;-145.32;46.01
14041;BME280;7095;51.388;6.196;2023-07-02T12:50:10;53188.97;;;-145.32;45.87
14041;BME280;7095;51.388;6.196;2023-07-02T12:52:39;53272.47;;;-145.32;46.04
14041;BME280;7095;51.388;6.196;2023-07-02T12:55:08;53278.44;;;-145.32;46.19
14041;BME280;7095;51.388;6.196;2023-07-02T12:57:36;53232.72;;;-145.32;44.96
14041;BME280;7095;51.388;6.196;2023-07-02T13:00:06;53157.19;;;-145.32;44.34
14041;BME280;7095;51.388;6.196;2023-07-02T13:02:36;53157.19;;;-145.32;43.69